CYQKCYQT

Guest
Details From CYQK - KENORA
To CYQT - Thunder Bay
Flight Number -
Tags generated
Created
Modified
Stats Distance 227 nm / 421 km
Max Altitude 17,000 ft / 5,182 m
Waypoints 4
Social Downloads 1
Likes 0
Share VATSIM

Download

Looking for another format? Having issues loading an existing format? Contact us
Advertisement - Login to hide

Notes

Basic altitude profile: - Ascent Rate: 2500ft/min - Ascent Speed: 250kts - Cruise Altitude: 5500ft - Cruise Speed: 420kts - Descent Rate: 1500ft/min - Descent Speed: 250kts

Route

CYQK VBI J500 YQT CYQT

ID Type Via Altitude Latitude Longitude Leg Dist Tot Dist Heading (true) Name
O CYQK APT - 0 ft / 0 m 49.78833˚ -94.36319˚ - 0 nm - KENORA
VBI VOR - 5,500 ft / 1,676 m 49.47692˚ -94.04672˚ 22 nm 22 nm 147° / 147° SIOUX NARROWS VOR-DME
YQT VOR J500 (AWY-HI) 17,000 ft / 5,182 m 48.25378˚ -89.43731˚ 196 nm 218 nm 110° / 114° THUNDER BAY VOR-DME
O CYQT APT - 0 ft / 0 m 48.37204˚ -89.32512˚ 8 nm 227 nm 32° / 32° Thunder Bay

Altitude Profile

Advertisement - Login to hide

Weather


0- 5 10 15 20 25 30 35+ Temperature / ° C

Clouds and Precipitation
Forecast for 2018-05-22 12:00 UTC. Updated 5 hours ago

Ground ~20,000 ft ~40,000 ft Winds

CYQK

Details ICAO CYQK (YQK)
Name KENORA
Region Canada
Timezone America/Winnipeg (UTC-5.0)
Stats Elevation 1,332 ft / 406 m (AMSL)
Location 49.788329° -94.363189°
Runways 1
Magnetic Variation 0.518° E

METAR

CYQK 221600Z VRB05KT 20SM FEW035 BKN250 21/12 A3000 RMK CF1CI5 SLP161 DENSITY ALT 2300FT

Decode

TAF

TAF CYQK 221338Z 2214/2302 23005KT P6SM FEW250 RMK NXT FCST BY 222000Z

Decode

Departure Runways

ID Width Length Bearing (true) Bearing (mag) Surface Threshold Offset Overrun Length
08 150 ft / 46 m 5,735 ft / 1,748 m 77.34° 76.82° Asphalt 0 ft / 0 m 0 ft / 0 m
26 150 ft / 46 m 5,735 ft / 1,748 m 257.36° 256.84° Asphalt 0 ft / 0 m 0 ft / 0 m

CYQT

Details ICAO CYQT (YQT)
Name Thunder Bay
Region Canada
Timezone America/Thunder_Bay (UTC-4.0)
Stats Elevation 653 ft / 199 m (AMSL)
Location 48.372036° -89.325122°
Runways 2
Magnetic Variation 3.747° W

METAR

CYQT 221600Z VRB02KT 20SM SCT260 25/03 A2996 RMK CI3 SLP150 DENSITY ALT 1900FT

Decode

TAF

TAF CYQT 221338Z 2214/2302 24005KT P6SM FEW240 BECMG 2217/2219 20012KT RMK NXT FCST BY 222000Z

Decode

Destination Runways

ID Width Length Bearing (true) Bearing (mag) Surface Threshold Offset Overrun Length
07 200 ft / 61 m 6,206 ft / 1,892 m 70.47° 74.22° Asphalt 0 ft / 0 m 0 ft / 0 m
12 200 ft / 61 m 5,305 ft / 1,617 m 121.57° 125.32° Asphalt 0 ft / 0 m 0 ft / 0 m
25 200 ft / 61 m 6,206 ft / 1,892 m 250.49° 254.24° Asphalt 0 ft / 0 m 0 ft / 0 m
30 200 ft / 61 m 5,305 ft / 1,617 m 301.58° 305.33° Asphalt 0 ft / 0 m 0 ft / 0 m

Approach Navaids

Runway Type Ident Frequency Range Bearing (true) Bearing (mag) Slope Elevation
07 Localiser IQT 109.50 MHz 18 nm / 33 km 70.53° 74.27° - 653 ft / 199 m (AMSL)
07 Glidescope IQT 109.50 MHz 10 nm / 19 km 74.00° 77.75° 3.00° 653 ft / 199 m (AMSL)

Popular Alternatives